Pacific Dawn — 3ECJ9 — position and weather

sailwx.info

Track history (hours):
 
Tides and Currents Weather Stations Pressure Air Temp Water Temp Dewpoint Dewpoint Depression Visibility Wind Speed Wind Dir Waves Ship Positions

Pacific Dawn

Last reported at 2016-Feb-22 21:27 UTC. Time now 2016-Apr-28 21:51 UTC.
Position N 01°12' E 103°52'.
Warning: this ship's position is months out of date.

Length 239 m; draft 8 m.

Type: Tanker. MMSI: 371361000.

Date/timePositionNaut miles runAvg speedWind from/ knotsBaromVisibWave heightAir tempDewpointWater temp
2016-Feb-22 21:27N 01°12' E 103°52'119 4.3
2016-Feb-21 18:03N 02°10' E 102°09'0 0.0
2016-Feb-21 17:13N 02°10' E 102°09'  
2016-Feb-17 03:31N 01°58' E 102°13'1010.6
2016-Feb-17 02:33N 01°53' E 102°22'1313.3
2016-Feb-17 01:33N 01°48' E 102°34'1413.2
2016-Feb-17 00:29N 01°42' E 102°47'1212.9
2016-Feb-16 23:32N 01°38' E 102°59'5512.3
2016-Feb-16 19:06N 01°09' E 103°45'813.9
2016-Feb-16 18:33N 01°12' E 103°52'3 3.3
2016-Feb-16 17:32N 01°15' E 103°54'0 0.0
2016-Feb-16 16:29N 01°15' E 103°54'0 0.0
2016-Feb-16 15:29N 01°15' E 103°54'0 0.0
2016-Feb-16 14:29N 01°15' E 103°54'0 0.0
2016-Feb-16 13:29N 01°15' E 103°54'0 0.0
2016-Feb-16 12:23N 01°15' E 103°54'0 0.0
2016-Feb-16 11:29N 01°15' E 103°54'0 0.0
2016-Feb-16 10:29N 01°15' E 103°54'0 0.0
2016-Feb-16 09:29N 01°15' E 103°54'0 0.0
2016-Feb-16 08:29N 01°15' E 103°54'0 0.0
2016-Feb-16 07:29N 01°15' E 103°54'0 0.0
2016-Feb-16 06:29N 01°15' E 103°54'0 0.0
2016-Feb-16 05:29N 01°15' E 103°54'0 0.1
2016-Feb-16 04:29N 01°15' E 103°54'0 0.0
2016-Feb-16 03:32N 01°15' E 103°54'0 0.0
2016-Feb-16 02:29N 01°15' E 103°54'0 0.0
2016-Feb-16 00:14N 01°15' E 103°54'0 0.1
2016-Feb-15 23:11N 01°15' E 103°54'3 4.2
2016-Feb-15 22:32N 01°15' E 103°57'2 1.6
2016-Feb-15 21:33N 01°14' E 103°58'4 3.6
2016-Feb-15 20:33N 01°13' E 103°55'7 7.2
2016-Feb-15 19:32N 01°10' E 103°48'79 8.5
2016-Feb-15 10:17N 01°43' E 102°37'911.2
2016-Feb-15 09:32N 01°47' E 102°29'1111.4
2016-Feb-15 08:32N 01°52' E 102°19'1111.6
2016-Feb-15 07:33N 01°58' E 102°10'  
Track history (hours):
 
Tides and Currents Weather Stations Pressure Air Temp Water Temp Dewpoint Dewpoint Depression Visibility Wind Speed Wind Dir Waves Ship Positions

Pacific Dawn

Last reported at 2016-Feb-22 21:27 UTC. Time now 2016-Apr-28 21:51 UTC.
Position N 01°12' E 103°52'.
Warning: this ship's position is months out of date.

Length 239 m; draft 8 m.

Type: Tanker. MMSI: 371361000.

Date/timePositionNaut miles runAvg speedWind from/ knotsBaromVisibWave heightAir tempDewpointWater temp
2016-Feb-22 21:27N 01°12' E 103°52'119 4.3
2016-Feb-21 18:03N 02°10' E 102°09'0 0.0
2016-Feb-21 17:13N 02°10' E 102°09'  
2016-Feb-17 03:31N 01°58' E 102°13'1010.6
2016-Feb-17 02:33N 01°53' E 102°22'1313.3
2016-Feb-17 01:33N 01°48' E 102°34'1413.2
2016-Feb-17 00:29N 01°42' E 102°47'1212.9
2016-Feb-16 23:32N 01°38' E 102°59'5512.3
2016-Feb-16 19:06N 01°09' E 103°45'813.9
2016-Feb-16 18:33N 01°12' E 103°52'3 3.3
2016-Feb-16 17:32N 01°15' E 103°54'0 0.0
2016-Feb-16 16:29N 01°15' E 103°54'0 0.0
2016-Feb-16 15:29N 01°15' E 103°54'0 0.0
2016-Feb-16 14:29N 01°15' E 103°54'0 0.0
2016-Feb-16 13:29N 01°15' E 103°54'0 0.0
2016-Feb-16 12:23N 01°15' E 103°54'0 0.0
2016-Feb-16 11:29N 01°15' E 103°54'0 0.0
2016-Feb-16 10:29N 01°15' E 103°54'0 0.0
2016-Feb-16 09:29N 01°15' E 103°54'0 0.0
2016-Feb-16 08:29N 01°15' E 103°54'0 0.0
2016-Feb-16 07:29N 01°15' E 103°54'0 0.0
2016-Feb-16 06:29N 01°15' E 103°54'0 0.0
2016-Feb-16 05:29N 01°15' E 103°54'0 0.1
2016-Feb-16 04:29N 01°15' E 103°54'0 0.0
2016-Feb-16 03:32N 01°15' E 103°54'0 0.0
2016-Feb-16 02:29N 01°15' E 103°54'0 0.0
2016-Feb-16 00:14N 01°15' E 103°54'0 0.1
2016-Feb-15 23:11N 01°15' E 103°54'3 4.2
2016-Feb-15 22:32N 01°15' E 103°57'2 1.6
2016-Feb-15 21:33N 01°14' E 103°58'4 3.6
2016-Feb-15 20:33N 01°13' E 103°55'7 7.2
2016-Feb-15 19:32N 01°10' E 103°48'79 8.5
2016-Feb-15 10:17N 01°43' E 102°37'911.2
2016-Feb-15 09:32N 01°47' E 102°29'1111.4
2016-Feb-15 08:32N 01°52' E 102°19'1111.6
2016-Feb-15 07:33N 01°58' E 102°10'  

Dump ship's entire track history